RJTQ(METAR)
12/04 16:00
RJTQ 040700Z 25020KT 9999 FEW035 BKNXXX 16/11 Q1016 RMK A3002=
戻る
トップページへ戻る
IMOC Co,.Ltd.